Time;durP1;ratioP1;P1;durP2;ratioP2;P2;SDS_P1;SDS_P2;PMS_P1;PMS_P2;Temp;Humidity;BMP_temperature;BMP_pressure;BME280_temperature;BME280_humidity;BME280_pressure;Samples;Min_cycle;Max_cycle;Signal;HPM_P1;HPM_P2
2023/02/10 00:01:18;;;;;;;9.60;3.80;;;;;;;-1.16;53.71;101347.64;80651;1297;3048526;-64
2023/02/10 00:03:45;;;;;;;6.80;3.70;;;;;;;-1.17;53.42;101345.21;81903;1295;3013123;-64
2023/02/10 00:06:12;;;;;;;7.50;3.90;;;;;;;-1.21;53.52;101344.48;81936;1297;3011169;-65
2023/02/10 00:08:41;;;;;;;9.80;3.80;;;;;;;-1.14;53.31;101344.42;80617;1297;3050689;-64
2023/02/10 00:11:09;;;;;;;10.90;4.30;;;;;;;-1.10;52.58;101338.81;81933;1296;3012419;-66
2023/02/10 00:13:37;;;;;;;8.60;3.60;;;;;;;-1.16;52.21;101330.47;81872;1296;3011158;-65
2023/02/10 00:16:06;;;;;;;8.50;3.40;;;;;;;-1.16;52.60;101328.91;80663;1295;3051181;-64
2023/02/10 00:18:34;;;;;;;8.00;3.60;;;;;;;-1.05;52.44;101318.61;81929;1296;3011173;-68
2023/02/10 00:21:07;;;;;;;9.90;3.50;;;;;;;-1.02;52.75;101311.59;81904;1297;3011433;-66
2023/02/10 00:23:35;;;;;;;9.10;4.10;;;;;;;-1.22;53.10;101313.68;80831;1294;3051153;-63
2023/02/10 00:26:06;;;;;;;5.90;4.10;;;;;;;-1.24;53.68;101313.63;82113;1294;3013131;-63
2023/02/10 00:28:34;;;;;;;6.20;3.30;;;;;;;-1.23;52.60;101316.77;80786;1294;3054598;-66
2023/02/10 00:31:08;;;;;;;6.40;3.20;;;;;;;-1.17;52.35;101316.84;82089;1294;3012491;-63
2023/02/10 00:33:36;;;;;;;8.30;2.90;;;;;;;-1.22;52.03;101310.06;80810;1297;3053381;-65
2023/02/10 00:36:06;;;;;;;5.40;3.10;;;;;;;-1.25;52.21;101317.76;82098;1293;3013227;-65
2023/02/10 00:38:34;;;;;;;6.40;3.40;;;;;;;-1.26;52.29;101318.59;80758;1294;3056853;-64
2023/02/10 00:41:15;;;;;;;8.50;3.60;;;;;;;-1.25;52.20;101316.55;82100;1294;3012653;-67
2023/02/10 00:43:44;;;;;;;6.90;2.80;;;;;;;-1.14;52.71;101312.43;80781;1294;3050603;-63
2023/02/10 00:46:11;;;;;;;5.20;2.80;;;;;;;-1.22;52.47;101314.00;82111;1294;3013041;-64
2023/02/10 00:48:38;;;;;;;4.40;2.70;;;;;;;-1.23;52.65;101314.00;82107;1294;3011440;-66
2023/02/10 00:51:06;;;;;;;4.80;2.40;;;;;;;-1.26;52.54;101312.41;80759;1297;3049467;-63
2023/02/10 00:53:33;;;;;;;3.80;2.10;;;;;;;-1.23;52.59;101310.56;82044;1294;3017986;-63
2023/02/10 00:56:00;;;;;;;4.10;2.20;;;;;;;-1.16;52.95;101303.45;82107;1293;3011212;-65
2023/02/10 00:58:28;;;;;;;4.70;2.60;;;;;;;-1.16;52.53;101306.90;80823;1293;3049326;-63
2023/02/10 01:00:55;;;;;;;6.30;2.70;;;;;;;-1.39;53.19;101305.81;82093;1293;3012539;-65
2023/02/10 01:03:22;;;;;;;5.20;3.10;;;;;;;-1.41;53.91;101308.69;82053;1298;3011185;-64
2023/02/10 01:05:51;;;;;;;4.10;2.60;;;;;;;-1.40;54.10;101309.56;80864;1294;3052106;-66
2023/02/10 01:08:17;;;;;;;7.50;3.50;;;;;;;-1.28;54.20;101307.71;82092;1294;3011195;-68
2023/02/10 01:10:46;;;;;;;5.00;3.00;;;;;;;-1.41;53.77;101305.08;82062;1294;3011128;-68
2023/02/10 01:13:14;;;;;;;8.20;3.80;;;;;;;-1.58;54.32;101301.86;80836;1298;3050323;-65
2023/02/10 01:15:43;;;;;;;14.90;5.50;;;;;;;-1.62;54.83;101300.08;82132;1293;3013060;-65
2023/02/10 01:18:09;;;;;;;21.70;7.30;;;;;;;-1.64;55.13;101294.02;82096;1294;3011686;-66
2023/02/10 01:20:39;;;;;;;21.40;8.90;;;;;;;-1.68;55.60;101293.42;80788;1298;3050687;-64
2023/02/10 01:23:06;;;;;;;18.50;7.80;;;;;;;-1.66;55.79;101289.52;82098;1296;3012796;-65
2023/02/10 01:25:34;;;;;;;21.60;8.50;;;;;;;-1.67;55.60;101284.67;82094;1294;3011238;-67
2023/02/10 01:28:02;;;;;;;18.00;8.10;;;;;;;-1.63;55.85;101279.59;80826;1294;3049164;-66
2023/02/10 01:30:29;;;;;;;16.10;6.90;;;;;;;-1.59;55.58;101285.68;82118;1293;3012615;-66
2023/02/10 01:32:56;;;;;;;19.80;6.80;;;;;;;-1.55;58.86;101286.97;82074;1294;3011296;-62
2023/02/10 01:35:24;;;;;;;18.40;7.60;;;;;;;-1.45;59.38;101285.59;80831;1294;3050393;-66
2023/02/10 01:37:55;;;;;;;19.10;8.60;;;;;;;-1.28;59.37;101279.36;82080;1293;3011317;-64
2023/02/10 01:40:26;;;;;;;18.00;8.80;;;;;;;-1.27;55.00;101278.67;80818;1294;3027139;-65
2023/02/10 01:42:53;;;;;;;23.30;8.70;;;;;;;-1.37;54.84;101280.41;82093;1294;3011234;-64
2023/02/10 01:45:34;;;;;;;21.70;8.90;;;;;;;-1.45;54.98;101279.40;80801;1298;3026832;-63
2023/02/10 01:48:01;;;;;;;17.70;8.50;;;;;;;-1.56;55.37;101282.98;80833;1297;3052651;-68
2023/02/10 01:50:32;;;;;;;19.70;9.30;;;;;;;-1.61;55.32;101278.77;82002;1299;3012427;-65
2023/02/10 01:53:01;;;;;;;18.70;7.80;;;;;;;-1.61;55.35;101278.44;80675;1294;3052552;-69
2023/02/10 01:55:33;;;;;;;23.40;9.60;;;;;;;-1.63;55.54;101279.42;82043;1294;3011509;-65
2023/02/10 01:58:06;;;;;;;61.40;18.70;;;;;;;-1.63;55.16;101279.42;80690;1294;3053621;-67
2023/02/10 02:00:33;;;;;;;67.40;21.20;;;;;;;-1.63;54.97;101279.42;82004;1294;3011390;-68
2023/02/10 02:03:01;;;;;;;55.30;18.10;;;;;;;-1.61;55.11;101279.80;80838;1294;3051036;-67
2023/02/10 02:05:31;;;;;;;52.00;18.90;;;;;;;-1.63;54.93;101276.84;82122;1294;3018207;-67
2023/02/10 02:08:16;;;;;;;48.90;17.40;;;;;;;-1.60;55.02;101274.50;81451;1295;3011529;-70
2023/02/10 02:11:05;;;;;;;37.90;13.90;;;;;;;-1.63;54.87;101275.81;80752;1295;3052781;-63
2023/02/10 02:13:36;;;;;;;28.00;12.20;;;;;;;-1.63;54.70;101276.00;80600;1297;3056822;-64
2023/02/10 02:16:18;;;;;;;36.40;12.40;;;;;;;-1.61;54.97;101275.33;81977;1297;3012671;-64
2023/02/10 02:19:14;;;;;;;36.20;14.00;;;;;;;-1.60;55.00;101273.47;80707;1295;3051647;-65
2023/02/10 02:21:54;;;;;;;35.80;13.70;;;;;;;-1.64;55.46;101275.98;80725;1298;3050982;-67
2023/02/10 02:24:34;;;;;;;39.60;14.70;;;;;;;-1.65;55.75;101273.02;80749;1297;3052310;-65
2023/02/10 02:27:07;;;;;;;37.30;15.60;;;;;;;-1.60;55.37;101277.42;80810;1296;3069184;-66
2023/02/10 02:29:42;;;;;;;27.40;12.40;;;;;;;-1.58;55.21;101278.16;81894;1295;3011387;-65
2023/02/10 02:32:20;;;;;;;32.50;14.60;;;;;;;-1.60;55.26;101278.11;80669;1295;3056169;-68
2023/02/10 02:35:12;;;;;;;30.90;13.80;;;;;;;-1.61;55.42;101276.02;80636;1294;3048429;-67
2023/02/10 02:37:41;;;;;;;27.40;13.50;;;;;;;-1.61;55.12;101277.76;80648;1295;3053561;-65
2023/02/10 02:40:09;;;;;;;29.30;13.00;;;;;;;-1.67;55.22;101277.46;81913;1297;3013801;-65
2023/02/10 02:42:35;;;;;;;31.90;12.40;;;;;;;-1.69;55.01;101277.60;81985;1300;3011484;-65
2023/02/10 02:45:12;;;;;;;24.70;11.00;;;;;;;-1.59;54.70;101276.91;80718;1294;3069524;-65
2023/02/10 02:47:51;;;;;;;27.50;10.30;;;;;;;-1.55;54.91;101275.95;80615;1295;3052631;-67
2023/02/10 02:50:40;;;;;;;28.40;11.60;;;;;;;-1.54;54.82;101274.59;80689;1294;3057677;-66
2023/02/10 02:53:25;;;;;;;28.40;11.60;;;;;;;-1.63;54.97;101273.75;80672;1294;3050680;-63
2023/02/10 02:56:11;;;;;;;28.40;12.20;;;;;;;-1.63;55.00;101272.38;80707;1295;3052404;-64
2023/02/10 02:58:50;;;;;;;29.40;13.30;;;;;;;-1.74;55.37;101267.38;80698;1299;3049848;-63
2023/02/10 03:01:25;;;;;;;27.30;11.50;;;;;;;-1.70;55.10;101265.39;80682;1298;3053928;-62
2023/02/10 03:03:54;;;;;;;32.20;13.10;;;;;;;-1.68;55.28;101266.80;81310;1299;3011427;-64
2023/02/10 03:06:21;;;;;;;49.30;18.60;;;;;;;-1.70;55.57;101269.17;81982;1295;3011373;-66
2023/02/10 03:08:47;;;;;;;70.70;23.90;;;;;;;-1.62;55.88;101271.20;81995;1297;3011191;-69
2023/02/10 03:11:15;;;;;;;96.50;30.80;;;;;;;-1.52;55.66;101270.70;80688;1296;3027286;-66
2023/02/10 03:13:42;;;;;;;129.30;37.00;;;;;;;-1.46;55.61;101270.09;81963;1299;3012774;-66
2023/02/10 03:16:09;;;;;;;93.60;33.40;;;;;;;-1.51;55.20;101272.77;81956;1295;3011260;-66
2023/02/10 03:18:36;;;;;;;72.10;27.80;;;;;;;-1.52;55.50;101266.90;80680;1295;3027169;-67
2023/02/10 03:21:03;;;;;;;68.40;23.60;;;;;;;-1.58;55.81;101264.75;82114;1296;3011264;-64
2023/02/10 03:23:30;;;;;;;63.50;22.20;;;;;;;-1.53;55.74;101269.64;82085;1294;3011534;-64
2023/02/10 03:25:59;;;;;;;48.90;19.90;;;;;;;-1.45;55.45;101267.71;80828;1295;3026588;-66
2023/02/10 03:28:26;;;;;;;40.40;17.60;;;;;;;-1.51;55.69;101270.19;82117;1295;3012695;-66
2023/02/10 03:30:52;;;;;;;47.30;20.60;;;;;;;-1.65;56.57;101267.36;82110;1297;3011200;-65
2023/02/10 03:33:20;;;;;;;54.90;22.80;;;;;;;-1.66;57.60;101265.10;80823;1295;3051588;-66
2023/02/10 03:35:47;;;;;;;56.40;23.20;;;;;;;-1.62;57.69;101269.99;82133;1295;3018527;-64
2023/02/10 03:38:13;;;;;;;60.00;23.80;;;;;;;-1.53;57.25;101271.02;82118;1295;3011529;-62
2023/02/10 03:40:41;;;;;;;57.00;26.10;;;;;;;-1.69;57.87;101271.08;80829;1296;3026313;-67
2023/02/10 03:43:08;;;;;;;72.70;30.40;;;;;;;-1.80;59.05;101269.48;82109;1294;3018552;-65
2023/02/10 03:45:34;;;;;;;64.20;25.70;;;;;;;-1.84;59.00;101267.36;82097;1294;3011492;-65
2023/02/10 03:48:03;;;;;;;63.40;22.70;;;;;;;-1.97;58.58;101271.90;80863;1295;3026266;-64
2023/02/10 03:50:29;;;;;;;39.60;18.20;;;;;;;-2.14;59.72;101270.89;82147;1294;3012476;-65
2023/02/10 03:52:56;;;;;;;45.50;18.00;;;;;;;-2.08;59.07;101274.45;82083;1294;3011441;-67
2023/02/10 03:55:24;;;;;;;41.70;18.50;;;;;;;-2.29;59.67;101277.62;80867;1293;3055770;-64
2023/02/10 03:57:50;;;;;;;38.10;17.10;;;;;;;-2.17;59.68;101279.23;82092;1297;3012389;-65
2023/02/10 04:00:16;;;;;;;43.60;19.30;;;;;;;-2.30;59.80;101278.63;82117;1294;3011395;-68
2023/02/10 04:02:44;;;;;;;40.10;16.30;;;;;;;-2.38;60.40;101279.49;80833;1295;3027009;-64
2023/02/10 04:05:11;;;;;;;37.00;16.20;;;;;;;-2.28;60.01;101279.38;82040;1296;3012456;-64
2023/02/10 04:07:38;;;;;;;38.80;16.50;;;;;;;-2.42;60.76;101276.30;82106;1294;3011335;-66
2023/02/10 04:10:06;;;;;;;50.70;19.20;;;;;;;-2.35;60.39;101275.44;80825;1294;3055719;-63
2023/02/10 04:12:34;;;;;;;47.40;18.40;;;;;;;-2.36;60.78;101275.59;82108;1295;3013647;-66
2023/02/10 04:15:01;;;;;;;45.70;19.60;;;;;;;-2.48;60.82;101277.55;82104;1294;3011509;-65
2023/02/10 04:17:29;;;;;;;43.60;16.90;;;;;;;-2.45;60.97;101279.52;80830;1297;3053902;-66
2023/02/10 04:19:56;;;;;;;46.50;18.70;;;;;;;-2.53;61.18;101278.66;82113;1297;3012790;-67
2023/02/10 04:22:22;;;;;;;47.90;20.70;;;;;;;-2.51;60.87;101277.67;82129;1294;3011513;-65
2023/02/10 04:24:51;;;;;;;47.30;19.10;;;;;;;-2.60;62.05;101277.99;80838;1294;3056437;-63
2023/02/10 04:27:18;;;;;;;43.10;18.10;;;;;;;-2.63;61.38;101279.81;82132;1294;3018755;-65
2023/02/10 04:29:44;;;;;;;46.20;20.70;;;;;;;-2.53;61.16;101278.98;82115;1294;3011424;-64
2023/02/10 04:32:12;;;;;;;48.20;19.50;;;;;;;-2.54;61.07;101279.48;80799;1293;3027510;-66
2023/02/10 04:34:39;;;;;;;34.70;15.30;;;;;;;-2.52;61.32;101275.24;82108;1294;3013287;-69
2023/02/10 04:37:05;;;;;;;34.10;15.20;;;;;;;-2.59;61.46;101276.80;82106;1294;3011387;-66
2023/02/10 04:39:33;;;;;;;39.40;14.90;;;;;;;-2.56;61.41;101273.79;80835;1294;3027681;-67
2023/02/10 04:42:00;;;;;;;26.30;12.80;;;;;;;-2.69;62.02;101277.11;82125;1294;3018227;-65
2023/02/10 04:44:26;;;;;;;30.50;13.30;;;;;;;-2.61;61.59;101279.50;82068;1295;3011124;-68
2023/02/10 04:46:54;;;;;;;29.10;12.30;;;;;;;-2.68;61.96;101276.61;80874;1294;3028413;-67
2023/02/10 04:49:20;;;;;;;24.20;11.00;;;;;;;-2.56;62.06;101271.73;82169;1294;3012706;-67
2023/02/10 04:51:47;;;;;;;32.90;12.30;;;;;;;-2.75;62.78;101271.14;82087;1293;3011462;-68
2023/02/10 04:54:15;;;;;;;28.90;11.10;;;;;;;-2.77;62.62;101271.78;80883;1293;3026498;-66
2023/02/10 04:56:41;;;;;;;28.30;13.00;;;;;;;-2.68;62.09;101271.29;82123;1294;3012542;-67
2023/02/10 04:59:08;;;;;;;31.70;14.90;;;;;;;-2.64;62.11;101278.59;82091;1293;3011619;-65
2023/02/10 05:01:36;;;;;;;39.10;16.70;;;;;;;-2.89;63.59;101279.37;80870;1294;3028079;-64
2023/02/10 05:04:03;;;;;;;35.70;16.10;;;;;;;-2.73;63.44;101283.70;82153;1293;3013281;-65
2023/02/10 05:06:29;;;;;;;35.30;14.30;;;;;;;-2.63;63.41;101276.54;82132;1294;3011434;-66
2023/02/10 05:08:58;;;;;;;27.40;13.10;;;;;;;-2.52;62.68;101277.13;80842;1293;3055933;-66
2023/02/10 05:11:25;;;;;;;32.40;14.10;;;;;;;-2.40;62.30;101277.56;82119;1294;3012794;-65
2023/02/10 05:13:51;;;;;;;47.50;18.40;;;;;;;-2.49;62.96;101281.14;82116;1294;3011389;-64
2023/02/10 05:16:19;;;;;;;38.60;16.80;;;;;;;-2.44;62.68;101281.26;80871;1293;3027450;-66
2023/02/10 05:18:46;;;;;;;42.40;17.60;;;;;;;-2.16;61.31;101287.16;82136;1294;3018008;-65
2023/02/10 05:21:18;;;;;;;37.30;14.70;;;;;;;-2.30;61.86;101285.30;81553;1293;3011198;-68
2023/02/10 05:23:44;;;;;;;35.20;15.30;;;;;;;-2.23;61.45;101290.77;82128;1293;3019013;-65
2023/02/10 05:26:11;;;;;;;35.00;13.90;;;;;;;-2.24;61.35;101293.70;82144;1294;3011300;-65
2023/02/10 05:28:39;;;;;;;43.00;15.10;;;;;;;-2.22;61.09;101290.81;80841;1294;3025778;-67
2023/02/10 05:31:06;;;;;;;33.90;14.10;;;;;;;-2.49;61.75;101293.15;82106;1294;3013095;-65
2023/02/10 05:33:34;;;;;;;42.50;15.20;;;;;;;-2.46;62.03;101295.63;82106;1294;3011231;-65
2023/02/10 05:36:05;;;;;;;52.10;18.20;;;;;;;-2.32;61.80;101300.37;80858;1294;3069047;-64
2023/02/10 05:38:31;;;;;;;35.30;13.60;;;;;;;-2.46;62.03;101298.55;82112;1294;3011517;-67
2023/02/10 05:40:58;;;;;;;41.80;15.70;;;;;;;-2.42;62.51;101296.56;82080;1294;3011265;-65
2023/02/10 05:43:26;;;;;;;31.20;13.50;;;;;;;-2.34;61.91;101296.04;80840;1294;3054218;-64
2023/02/10 05:45:52;;;;;;;31.40;13.20;;;;;;;-2.21;61.54;101302.00;82125;1296;3018132;-64
2023/02/10 05:48:19;;;;;;;32.20;14.60;;;;;;;-2.16;61.24;101300.89;82120;1294;3011344;-68
2023/02/10 05:50:51;;;;;;;34.60;13.30;;;;;;;-2.28;61.69;101300.13;80807;1294;3026741;-65
2023/02/10 05:53:18;;;;;;;33.10;13.80;;;;;;;-2.33;61.84;101297.96;82101;1293;3011393;-64
2023/02/10 05:55:47;;;;;;;37.10;14.90;;;;;;;-2.39;62.38;101296.46;80829;1293;3055292;-65
2023/02/10 05:58:13;;;;;;;34.60;14.80;;;;;;;-2.44;62.97;101299.09;82103;1294;3012686;-66
2023/02/10 06:00:40;;;;;;;28.70;13.50;;;;;;;-2.38;62.96;101301.98;82065;1294;3011823;-64
2023/02/10 06:03:08;;;;;;;27.00;12.80;;;;;;;-2.32;61.64;101304.16;80829;1294;3027451;-65
2023/02/10 06:05:34;;;;;;;33.80;13.80;;;;;;;-2.35;62.12;101305.66;82135;1294;3011127;-65
2023/02/10 06:08:01;;;;;;;40.20;17.20;;;;;;;-2.18;61.51;101304.82;82101;1294;3011033;-65
2023/02/10 06:10:28;;;;;;;33.30;14.10;;;;;;;-2.35;61.53;101298.45;80841;1294;3026280;-67
2023/02/10 06:12:55;;;;;;;42.10;15.30;;;;;;;-2.37;61.89;101298.25;82026;1294;3018198;-65
2023/02/10 06:15:21;;;;;;;59.00;20.30;;;;;;;-2.32;61.98;101305.36;82009;1294;3011169;-66
2023/02/10 06:17:51;;;;;;;52.40;19.90;;;;;;;-2.43;62.16;101308.40;80805;1295;3053684;-66
2023/02/10 06:20:17;;;;;;;47.40;21.00;;;;;;;-2.51;62.63;101305.31;82040;1294;3012556;-67
2023/02/10 06:22:44;;;;;;;45.10;18.40;;;;;;;-2.24;62.18;101301.23;81974;1296;3011224;-64
2023/02/10 06:25:12;;;;;;;45.10;17.50;;;;;;;-2.32;62.15;101302.27;80796;1294;3026525;-67
2023/02/10 06:27:39;;;;;;;40.00;17.20;;;;;;;-2.28;62.66;101300.46;82047;1294;3013189;-65
2023/02/10 06:30:08;;;;;;;40.00;17.50;;;;;;;-2.36;63.37;101292.05;82013;1294;3011161;-65
2023/02/10 06:32:36;;;;;;;53.90;21.70;;;;;;;-2.31;63.72;101294.05;80716;1298;3052976;-64
2023/02/10 06:35:03;;;;;;;39.90;18.40;;;;;;;-2.36;64.36;101291.04;82050;1294;3012842;-65
2023/02/10 06:37:30;;;;;;;48.90;21.70;;;;;;;-2.32;64.37;101292.33;81978;1294;3011752;-65
2023/02/10 06:39:58;;;;;;;43.60;19.40;;;;;;;-2.26;64.07;101293.14;80713;1294;3057200;-64
2023/02/10 06:42:24;;;;;;;42.80;17.80;;;;;;;-2.26;64.00;101292.80;82069;1294;3018396;-67
2023/02/10 06:44:51;;;;;;;42.40;19.60;;;;;;;-2.25;63.62;101293.16;81963;1294;3011514;-66
2023/02/10 06:47:19;;;;;;;41.60;18.10;;;;;;;-2.19;63.64;101294.83;80704;1297;3027215;-67
2023/02/10 06:49:46;;;;;;;40.60;16.70;;;;;;;-2.13;63.10;101291.70;82016;1297;3012387;-66
2023/02/10 06:52:12;;;;;;;41.50;16.80;;;;;;;-1.96;62.94;101292.88;81966;1297;3011233;-65
2023/02/10 06:54:41;;;;;;;36.50;17.20;;;;;;;-1.99;62.81;101288.70;80684;1294;3026812;-64
2023/02/10 06:57:07;;;;;;;39.00;17.70;;;;;;;-2.06;62.74;101288.23;82010;1294;3012593;-65
2023/02/10 06:59:35;;;;;;;39.40;17.50;;;;;;;-1.98;62.39;101286.33;82002;1294;3011559;-67
2023/02/10 07:02:03;;;;;;;42.00;19.60;;;;;;;-1.92;62.53;101284.71;80816;1297;3050895;-65
2023/02/10 07:04:31;;;;;;;37.60;17.90;;;;;;;-1.96;62.17;101281.89;82056;1297;3012708;-69
2023/02/10 07:06:57;;;;;;;36.60;15.90;;;;;;;-1.96;62.22;101282.41;82027;1294;3010973;-64
2023/02/10 07:09:26;;;;;;;40.20;17.90;;;;;;;-1.92;61.84;101279.23;80719;1294;3056431;-65
2023/02/10 07:11:53;;;;;;;35.50;17.70;;;;;;;-2.05;63.16;101277.59;82023;1294;3012678;-64
2023/02/10 07:14:20;;;;;;;36.10;16.60;;;;;;;-2.03;63.33;101275.92;81969;1296;3011169;-67
2023/02/10 07:16:49;;;;;;;34.70;16.80;;;;;;;-1.99;63.09;101276.50;80743;1295;3052059;-67
2023/02/10 07:19:15;;;;;;;39.00;17.80;;;;;;;-1.93;62.88;101277.48;82128;1294;3012632;-66
2023/02/10 07:21:42;;;;;;;38.20;19.20;;;;;;;-1.98;63.51;101276.02;82034;1294;3011145;-64
2023/02/10 07:24:09;;;;;;;35.00;16.80;;;;;;;-1.84;63.21;101273.19;80713;1294;3026953;-67
2023/02/10 07:26:36;;;;;;;41.30;18.10;;;;;;;-1.96;63.15;101264.05;82020;1294;3012847;-65
2023/02/10 07:29:02;;;;;;;37.10;16.80;;;;;;;-2.02;63.55;101264.26;82101;1294;3011142;-63
2023/02/10 07:31:34;;;;;;;33.70;15.30;;;;;;;-2.00;63.82;101264.48;80791;1295;3026290;-65
2023/02/10 07:34:02;;;;;;;34.70;16.40;;;;;;;-1.92;63.27;101270.14;81983;1296;3011174;-65
2023/02/10 07:36:30;;;;;;;34.20;16.40;;;;;;;-1.92;63.57;101266.17;80696;1295;3025877;-70
2023/02/10 07:38:56;;;;;;;36.10;16.10;;;;;;;-1.92;63.22;101263.93;82007;1293;3011166;-64
2023/02/10 07:41:23;;;;;;;31.60;15.10;;;;;;;-1.84;63.08;101267.01;81982;1294;3011142;-68
2023/02/10 07:43:51;;;;;;;30.60;14.00;;;;;;;-1.80;63.29;101261.06;80725;1296;3026081;-65
2023/02/10 07:46:18;;;;;;;30.70;14.30;;;;;;;-1.77;63.08;101263.01;82068;1295;3012672;-65
2023/02/10 07:48:45;;;;;;;33.80;15.10;;;;;;;-1.77;63.16;101261.98;82127;1298;3011115;-65
2023/02/10 07:51:12;;;;;;;33.20;15.30;;;;;;;-1.76;63.59;101262.69;80883;1293;3069774;-64
2023/02/10 07:53:39;;;;;;;34.70;16.90;;;;;;;-1.97;63.63;101264.53;82167;1294;3013190;-66
2023/02/10 07:56:06;;;;;;;36.60;16.10;;;;;;;-1.83;63.92;101260.67;81999;1294;3011405;-73
2023/02/10 07:58:35;;;;;;;35.20;17.60;;;;;;;-1.65;63.58;101262.55;80715;1296;3025129;-74
2023/02/10 08:01:06;;;;;;;41.70;18.50;;;;;;;-1.78;63.60;101263.52;82075;1297;3012515;-70
2023/02/10 08:03:35;;;;;;;35.30;15.80;;;;;;;-1.67;63.16;101263.55;80726;1297;3053102;-72
2023/02/10 08:06:02;;;;;;;34.70;16.20;;;;;;;-1.52;63.55;101261.41;81977;1296;3018367;-68
2023/02/10 08:08:28;;;;;;;33.20;15.90;;;;;;;-1.46;63.14;101260.82;81956;1294;3011313;-69
2023/02/10 11:10:02;;;;;;;14.70;7.40;;;;;;;-0.01;55.82;101080.98;80018;1298;3013016;-64
2023/02/10 11:12:39;;;;;;;12.70;6.80;;;;;;;-0.06;56.53;101083.16;79076;1300;3015787;-60
2023/02/10 11:15:30;;;;;;;12.50;6.60;;;;;;;0.11;57.01;101073.48;77940;1301;3053832;-63
2023/02/10 11:18:00;;;;;;;14.00;7.40;;;;;;;0.27;55.91;101059.82;77877;1298;3052717;-60
2023/02/10 11:20:30;;;;;;;11.90;7.00;;;;;;;0.41;55.67;101063.36;79005;1301;3015478;-59
2023/02/10 11:23:19;;;;;;;11.80;7.10;;;;;;;0.30;55.27;101055.52;77360;1300;3056531;-60
2023/02/10 11:25:59;;;;;;;13.80;7.80;;;;;;;0.16;55.58;101051.64;77986;1299;3051555;-59
2023/02/10 11:28:28;;;;;;;17.30;7.30;;;;;;;0.36;56.11;101052.13;78016;1300;3053942;-61
2023/02/10 11:30:58;;;;;;;22.60;8.50;;;;;;;0.46;55.63;101054.26;79332;1300;3012924;-61
2023/02/10 11:33:29;;;;;;;16.20;7.90;;;;;;;0.69;55.75;101050.42;78022;1295;3052042;-59
2023/02/10 11:36:01;;;;;;;16.50;8.60;;;;;;;1.18;54.53;101052.70;79323;1298;3011922;-62
2023/02/10 11:38:31;;;;;;;17.80;8.10;;;;;;;1.35;53.39;101049.98;78033;1295;3068504;-61
2023/02/10 11:41:11;;;;;;;19.40;8.30;;;;;;;1.30;53.55;101051.87;79231;1297;3013404;-60
2023/02/10 11:43:44;;;;;;;16.60;8.60;;;;;;;1.13;53.78;101052.16;77999;1299;3050058;-61
2023/02/10 11:46:37;;;;;;;;;;;;;;;1.09;54.28;101053.01;79233;1298;3013024;-60
2023/02/10 11:49:09;;;;;;;18.30;8.40;;;;;;;0.97;54.45;101047.44;78025;1300;3049989;-60
2023/02/10 11:51:50;;;;;;;17.60;8.50;;;;;;;0.54;55.59;101049.30;78641;1302;3011939;-62
2023/02/10 11:54:18;;;;;;;16.20;7.50;;;;;;;0.55;55.79;101048.27;78030;1301;3052904;-59
2023/02/10 11:59:56;;;;;;;18.40;7.70;;;;;;;0.41;55.98;101054.40;78004;1297;3051993;-60
2023/02/10 12:03:00;;;;;;;16.70;8.00;;;;;;;0.58;55.89;101043.11;77990;1298;3056489;-60
2023/02/10 12:05:34;;;;;;;;;;;;;;;0.57;55.99;101041.90;78047;1300;3050088;-61
2023/02/10 12:08:15;;;;;;;15.70;7.70;;;;;;;0.52;56.28;101042.55;79280;1297;3011850;-61
2023/02/10 12:10:52;;;;;;;12.40;7.20;;;;;;;0.57;56.06;101044.15;78014;1298;3052098;-62
2023/02/10 12:13:26;;;;;;;16.10;8.60;;;;;;;0.65;56.00;101040.41;78031;1300;3053871;-58
2023/02/10 12:16:20;;;;;;;14.70;8.40;;;;;;;0.63;55.85;101033.48;79242;1297;3012108;-63
2023/02/10 12:18:57;;;;;;;16.90;8.20;;;;;;;0.61;55.70;101040.71;78076;1297;3068876;-58
2023/02/10 12:21:43;;;;;;;14.20;8.50;;;;;;;0.67;55.36;101030.06;78023;1300;3052869;-59
2023/02/10 12:24:39;;;;;;;22.00;9.10;;;;;;;0.78;55.03;101033.90;78007;1299;3058984;-58
2023/02/10 12:27:16;;;;;;;31.50;10.90;;;;;;;0.89;53.65;101025.85;77986;1300;3051654;-61
2023/02/10 12:30:00;;;;;;;19.00;8.20;;;;;;;0.98;53.56;101036.58;78035;1300;3053445;-60
2023/02/10 12:32:47;;;;;;;19.50;9.50;;;;;;;0.89;53.88;101040.69;78007;1300;3050891;-60
2023/02/10 12:35:26;;;;;;;19.00;8.60;;;;;;;0.96;53.61;101043.30;77943;1300;3053884;-61
2023/02/10 12:38:04;;;;;;;17.00;8.90;;;;;;;1.01;53.20;101050.06;77996;1297;3052368;-60
2023/02/10 12:40:48;;;;;;;15.90;7.80;;;;;;;0.83;53.87;101040.14;78021;1300;3069198;-64
2023/02/10 12:43:40;;;;;;;15.40;7.50;;;;;;;1.03;53.32;101036.94;78028;1300;3051832;-61
2023/02/10 12:46:39;;;;;;;17.50;7.90;;;;;;;1.46;52.77;101034.12;77873;1300;3058101;-62
2023/02/10 12:49:29;;;;;;;16.00;8.10;;;;;;;1.31;52.47;101028.57;77958;1300;3050684;-60
2023/02/10 12:52:02;;;;;;;19.60;8.60;;;;;;;1.26;52.18;101029.23;77973;1300;3055109;-58
2023/02/10 12:54:55;;;;;;;19.20;8.40;;;;;;;1.49;51.71;101030.51;79195;1296;3011582;-60
2023/02/10 12:57:36;;;;;;;20.20;9.40;;;;;;;1.71;51.18;101026.56;77938;1300;3054140;-63
2023/02/10 13:00:26;;;;;;;16.30;8.40;;;;;;;1.65;51.11;101033.63;77960;1298;3052731;-62
2023/02/10 13:02:58;;;;;;;15.90;6.80;;;;;;;1.45;51.40;101036.71;77914;1298;3067786;-59
2023/02/10 13:05:30;;;;;;;13.60;7.30;;;;;;;1.75;50.61;101042.27;79297;1295;3012086;-62
2023/02/10 13:08:02;;;;;;;19.30;7.90;;;;;;;1.38;50.81;101030.66;78020;1300;3056944;-59
2023/02/10 13:10:32;;;;;;;16.90;7.50;;;;;;;1.34;50.65;101029.45;79188;1297;3011892;-61
2023/02/10 13:13:05;;;;;;;33.40;13.10;;;;;;;1.36;50.14;101024.61;78057;1300;3054046;-60
2023/02/10 13:15:35;;;;;;;25.20;10.10;;;;;;;1.39;49.90;101029.09;79207;1298;3011927;-60
2023/02/10 13:18:14;;;;;;;23.10;10.80;;;;;;;1.30;50.79;101028.05;78070;1300;3051952;-59
2023/02/10 13:21:10;;;;;;;23.60;10.50;;;;;;;1.40;50.56;101030.32;77990;1300;3054350;-63
2023/02/10 13:23:42;;;;;;;19.20;8.80;;;;;;;1.76;50.00;101037.96;78028;1297;3070408;-64
2023/02/10 13:26:48;;;;;;;16.90;8.10;;;;;;;1.56;50.14;101033.45;79235;1298;3011794;-62
2023/02/10 13:29:25;;;;;;;16.30;8.40;;;;;;;1.19;50.95;101038.37;77849;1299;3056601;-64
2023/02/10 13:32:05;;;;;;;16.90;7.50;;;;;;;1.02;51.76;101039.70;78182;1300;3049828;-64
2023/02/10 13:34:35;;;;;;;19.00;7.30;;;;;;;1.08;51.71;101036.62;77935;1300;3053792;-64
2023/02/10 13:37:10;;;;;;;17.90;7.70;;;;;;;0.93;52.51;101037.76;79219;1298;3013441;-65
2023/02/10 13:39:38;;;;;;;18.50;8.50;;;;;;;1.08;52.50;101034.71;78026;1301;3052228;-64
2023/02/10 13:42:15;;;;;;;16.30;8.20;;;;;;;1.09;52.37;101033.68;79226;1300;3013094;-65
2023/02/10 13:44:43;;;;;;;14.70;7.40;;;;;;;1.21;52.17;101030.80;78159;1300;3052035;-64
2023/02/10 13:47:19;;;;;;;18.00;8.90;;;;;;;1.06;52.52;101025.73;79615;1296;3013956;-65
2023/02/10 13:50:02;;;;;;;18.20;9.10;;;;;;;0.97;52.81;101026.40;78018;1298;3053913;-62
2023/02/10 13:52:34;;;;;;;17.70;8.30;;;;;;;0.85;52.64;101025.48;78017;1300;3050048;-64
2023/02/10 13:55:23;;;;;;;16.70;7.70;;;;;;;0.77;53.01;101031.48;79279;1300;3013339;-63
2023/02/10 13:57:54;;;;;;;14.90;7.80;;;;;;;0.77;53.40;101026.14;77962;1300;3052415;-64
2023/02/10 14:00:24;;;;;;;19.90;8.10;;;;;;;0.77;53.73;101023.03;79353;1296;3011691;-66
2023/02/10 14:03:18;;;;;;;15.00;8.10;;;;;;;0.77;53.74;101020.45;77985;1295;3050587;-64
2023/02/10 14:06:06;;;;;;;15.10;7.30;;;;;;;0.72;53.66;101026.98;77988;1300;3058275;-63
2023/02/10 14:08:42;;;;;;;17.80;8.50;;;;;;;0.74;54.01;101029.39;77967;1297;3049649;-62
2023/02/10 14:11:14;;;;;;;18.40;8.30;;;;;;;0.59;54.46;101021.40;79350;1296;3011828;-64
2023/02/10 14:13:44;;;;;;;18.80;8.20;;;;;;;0.50;54.49;101020.65;78089;1300;3050829;-64
2023/02/10 14:16:14;;;;;;;21.10;8.60;;;;;;;0.50;54.62;101017.03;79202;1301;3013337;-66
2023/02/10 14:18:46;;;;;;;20.00;9.00;;;;;;;0.65;54.72;101013.66;78107;1299;3051577;-64
2023/02/10 14:21:14;;;;;;;27.90;9.80;;;;;;;0.78;54.25;101013.55;79497;1300;3011974;-64